Time;durP1;ratioP1;P1;durP2;ratioP2;P2;SDS_P1;SDS_P2;PMS_P1;PMS_P2;Temp;Humidity;BMP_temperature;BMP_pressure;BME280_temperature;BME280_humidity;BME280_pressure;Samples;Min_cycle;Max_cycle;Signal;HPM_P1;HPM_P2
2022/04/19 00:01:54;;;;;;;;;7.67;3.33;;;;;14.85;49.27;101181.31;5057495;28;45565;-46
2022/04/19 00:04:19;;;;;;;;;7.67;6.33;;;;;14.84;49.62;101179.66;5057420;28;45316;-46
2022/04/19 00:06:45;;;;;;;;;7.00;7.00;;;;;14.83;50.06;101182.47;5057779;28;45292;-46
2022/04/19 00:09:11;;;;;;;;;5.67;4.00;;;;;14.83;48.44;101172.63;5057157;28;45514;-48
2022/04/19 00:11:36;;;;;;;;;7.67;5.00;;;;;14.81;49.04;101168.44;5057144;28;45341;-46
2022/04/19 00:14:02;;;;;;;;;7.67;5.33;;;;;14.79;49.13;101171.28;5057021;28;45432;-45
2022/04/19 00:16:27;;;;;;;;;9.00;7.00;;;;;14.75;49.48;101166.38;5057288;28;45239;-44
2022/04/19 00:18:53;;;;;;;;;10.33;6.33;;;;;14.75;48.38;101171.75;5057304;28;46086;-46
2022/04/19 00:21:19;;;;;;;;;9.33;4.67;;;;;14.71;48.90;101165.91;5057201;28;45239;-45
2022/04/19 00:23:46;;;;;;;;;8.67;3.00;;;;;14.58;48.81;101139.59;5057452;28;45275;-44
2022/04/19 00:26:11;;;;;;;;;3.67;3.67;;;;;14.65;48.82;101166.53;5057327;28;45401;-44
2022/04/19 00:28:37;;;;;;;;;3.00;3.00;;;;;14.64;48.85;101156.84;5056780;28;45541;-44
2022/04/19 00:31:05;;;;;;;;;7.67;3.67;;;;;14.55;48.86;101144.44;5057085;28;45373;-46
2022/04/19 00:33:30;;;;;;;;;8.33;5.00;;;;;14.65;48.82;101158.50;5057104;28;45421;-44
2022/04/19 00:35:56;;;;;;;;;8.00;4.33;;;;;14.69;48.96;101166.03;5057200;28;45331;-46
2022/04/19 00:38:22;;;;;;;;;7.33;5.33;;;;;14.70;49.54;101161.53;5056896;28;46922;-44
2022/04/19 00:40:48;;;;;;;;;5.33;5.00;;;;;14.69;49.20;101163.38;5056932;28;45458;-44
2022/04/19 00:43:16;;;;;;;;;7.00;5.00;;;;;14.66;49.05;101158.38;5057229;28;45289;-49
2022/04/19 00:45:41;;;;;;;;;10.00;7.00;;;;;14.68;48.91;101159.03;5057174;28;45237;-46
2022/04/19 00:48:07;;;;;;;;;5.33;5.33;;;;;14.68;48.73;101158.19;5056631;28;45356;-44
2022/04/19 00:50:32;;;;;;;;;10.00;5.67;;;;;14.57;49.15;101137.06;5056724;28;45309;-46
2022/04/19 00:52:59;;;;;;;;;5.00;5.00;;;;;14.62;49.01;101158.81;5056881;28;45396;-44
2022/04/19 00:55:24;;;;;;;;;5.67;4.00;;;;;14.58;49.03;101152.13;5057000;28;45328;-45
2022/04/19 00:57:51;;;;;;;;;7.33;5.33;;;;;14.60;49.26;101152.81;5056255;28;45318;-44
2022/04/19 01:00:17;;;;;;;;;6.33;4.67;;;;;14.45;48.49;101133.81;5056683;28;45361;-47
2022/04/19 01:02:42;;;;;;;;;5.00;4.00;;;;;14.51;48.71;101146.59;5056614;28;45442;-44
2022/04/19 01:05:09;;;;;;;;;4.33;3.67;;;;;14.45;48.86;101144.50;5056741;28;45472;-44
2022/04/19 01:07:36;;;;;;;;;6.33;6.33;;;;;14.36;48.74;101135.63;5056459;28;47135;-46
2022/04/19 01:10:01;;;;;;;;;3.67;3.00;;;;;14.42;48.37;101151.06;5056475;28;45389;-45
2022/04/19 01:15:14;;;;;;;;;5.00;5.00;;;;;14.36;48.38;101145.50;5056923;28;45237;-44
2022/04/19 01:17:41;;;;;;;;;7.00;4.33;;;;;14.26;48.59;101144.78;5071797;28;46090;-45
2022/04/19 01:20:08;;;;;;;;;5.00;3.33;;;;;14.26;48.47;101150.97;5056530;28;45433;-44
2022/04/19 01:22:35;;;;;;;;;3.00;3.00;;;;;14.22;48.32;101149.63;5056411;28;45394;-45
2022/04/19 01:25:00;;;;;;;;;9.67;4.67;;;;;14.17;48.67;101155.47;5056898;28;45262;-43
2022/04/19 01:27:26;;;;;;;;;5.33;4.67;;;;;14.15;48.89;101148.56;5059985;28;45351;-44
2022/04/19 01:29:53;;;;;;;;;3.67;3.00;;;;;14.13;48.42;101153.25;5059908;28;45224;-45
2022/04/19 01:32:20;;;;;;;;;9.33;3.33;;;;;14.07;48.20;101152.03;5059587;28;45772;-43
2022/04/19 01:34:46;;;;;;;;;4.00;4.00;;;;;14.06;48.94;101147.69;5059753;28;45464;-46
2022/04/19 01:37:12;;;;;;;;;6.33;3.67;;;;;13.93;48.15;101133.94;5059760;28;46570;-44
2022/04/19 01:42:21;;;;;;;;;7.67;3.00;;;;;13.97;48.34;101136.13;5059791;28;45329;-44
2022/04/19 01:44:47;;;;;;;;;7.33;3.67;;;;;13.92;48.89;101127.75;5059293;28;45316;-45
2022/04/19 01:47:13;;;;;;;;;7.33;4.00;;;;;13.94;48.81;101139.09;5059227;28;47292;-45
2022/04/19 01:49:38;;;;;;;;;7.00;7.00;;;;;13.91;48.85;101136.78;5059624;28;45330;-45
2022/04/19 01:52:08;;;;;;;;;4.00;2.33;;;;;13.92;47.96;101135.75;5059858;28;45274;-45
2022/04/19 01:54:34;;;;;;;;;8.33;4.67;;;;;13.78;48.16;101124.81;5060194;28;45431;-43
2022/04/19 01:56:59;;;;;;;;;5.67;5.67;;;;;13.73;48.33;101126.13;5059921;28;46004;-43
2022/04/19 01:59:24;;;;;;;;;2.00;2.00;;;;;13.83;48.33;101138.56;5058256;28;45407;-43
2022/04/19 02:01:50;;;;;;;;;7.67;5.00;;;;;13.67;48.37;101132.09;5058731;28;45471;-44
2022/04/19 02:04:15;;;;;;;;;4.00;4.00;;;;;13.76;47.78;101145.53;5060252;28;45594;-44
2022/04/19 02:06:42;;;;;;;;;2.00;2.00;;;;;13.71;48.27;101146.84;5060663;28;45345;-44
2022/04/19 02:09:07;;;;;;;;;4.00;3.00;;;;;13.70;47.52;101139.00;5060034;28;45373;-43
2022/04/19 02:11:33;;;;;;;;;6.33;4.00;;;;;13.65;47.43;101139.47;5059770;28;45226;-45
2022/04/19 02:13:59;;;;;;;;;4.67;3.00;;;;;13.51;47.66;101115.97;5059677;28;45427;-44
2022/04/19 02:16:24;;;;;;;;;3.33;3.00;;;;;13.57;47.51;101127.84;5059396;28;46158;-44
2022/04/19 02:18:50;;;;;;;;;2.67;2.67;;;;;13.55;47.44;101135.19;5059051;28;45393;-44
2022/04/19 02:21:15;;;;;;;;;3.67;3.67;;;;;13.51;47.22;101133.84;5059197;28;45924;-45
2022/04/19 02:23:40;;;;;;;;;4.67;3.00;;;;;13.49;47.20;101134.00;5059412;28;45225;-45
2022/04/19 02:26:06;;;;;;;;;4.00;4.00;;;;;13.47;47.55;101138.66;5058935;28;45419;-44
2022/04/19 02:28:31;;;;;;;;;3.00;3.00;;;;;13.41;46.95;101137.44;5059077;28;45301;-47
2022/04/19 02:30:57;;;;;;;;;2.33;2.00;;;;;13.39;47.68;101138.59;5057766;28;45254;-45
2022/04/19 02:33:23;;;;;;;;;4.67;4.00;;;;;13.22;47.96;101110.88;5058922;28;45423;-45
2022/04/19 02:35:48;;;;;;;;;3.00;3.00;;;;;13.36;47.16;101136.25;5058530;28;45298;-46
2022/04/19 02:38:14;;;;;;;;;4.33;2.00;;;;;13.31;46.94;101126.00;5058522;28;45325;-46
2022/04/19 02:40:39;;;;;;;;;2.00;2.00;;;;;13.30;47.03;101129.66;5058802;28;45336;-46
2022/04/19 02:43:05;;;;;;;;;3.00;2.00;;;;;13.31;46.90;101126.00;5059015;28;45399;-46
2022/04/19 02:45:31;;;;;;;;;6.33;4.00;;;;;13.30;47.25;101128.81;5058637;28;46147;-45
2022/04/19 02:48:08;;;;;;;;;3.67;3.00;;;;;13.25;46.88;101121.28;5058485;28;45518;-45
2022/04/19 02:50:40;;;;;;;;;4.00;3.00;;;;;13.26;46.62;101130.13;5058744;28;45389;-46
2022/04/19 02:53:06;;;;;;;;;4.67;4.00;;;;;13.25;47.15;101128.47;5058943;28;45400;-45
2022/04/19 02:55:31;;;;;;;;;6.00;3.33;;;;;13.24;47.41;101130.28;5057041;28;46092;-45
2022/04/19 02:57:56;;;;;;;;;6.00;4.00;;;;;13.22;47.02;101130.44;5058248;28;45511;-44
2022/04/19 03:00:23;;;;;;;;;4.00;4.00;;;;;13.19;46.89;101125.38;5058843;28;45749;-45
2022/04/19 03:02:49;;;;;;;;;4.67;3.00;;;;;13.19;47.37;101128.06;5058412;28;45260;-47
2022/04/19 03:05:15;;;;;;;;;8.00;6.00;;;;;13.15;47.81;101124.03;5058230;28;47168;-46
2022/04/19 03:07:41;;;;;;;;;3.33;3.33;;;;;13.14;47.83;101125.00;5058166;28;45327;-44
2022/04/19 03:10:07;;;;;;;;;6.00;6.00;;;;;13.13;47.70;101127.81;5058213;28;45258;-47
2022/04/19 03:12:32;;;;;;;;;6.00;6.00;;;;;13.00;47.38;101106.84;5058384;28;45248;-46
2022/04/19 03:14:58;;;;;;;;;4.33;2.67;;;;;12.97;47.99;101107.16;5057908;28;46018;-45
2022/04/19 03:17:23;;;;;;;;;4.00;3.00;;;;;13.06;47.27;101121.41;5058076;28;45345;-45
2022/04/19 03:19:49;;;;;;;;;6.67;4.00;;;;;13.04;47.98;101116.22;5058186;28;45462;-45
2022/04/19 03:22:14;;;;;;;;;3.00;3.00;;;;;13.02;47.88;101123.56;5058413;28;45367;-44
2022/04/19 03:27:41;;;;;;;;;3.33;3.33;;;;;12.95;47.33;101118.00;5058321;28;45510;-45
2022/04/19 03:30:14;;;;;;;;;4.67;4.67;;;;;12.89;47.57;101101.72;5058002;28;45486;-46
2022/04/19 03:32:43;;;;;;;;;6.67;4.00;;;;;12.80;47.99;101097.31;5058166;28;45222;-46
2022/04/19 03:35:10;;;;;;;;;6.00;4.00;;;;;12.74;47.57;101086.25;5057498;28;46258;-45
2022/04/19 03:37:36;;;;;;;;;3.00;3.00;;;;;12.84;48.28;101117.38;5057819;28;45333;-45
2022/04/19 03:40:01;;;;;;;;;4.33;3.67;;;;;12.82;48.13;101114.03;5057720;28;45430;-47
2022/04/19 03:42:26;;;;;;;;;4.67;3.00;;;;;12.79;47.77;101109.00;5058296;28;45374;-44
2022/04/19 03:44:52;;;;;;;;;5.33;2.00;;;;;12.73;47.53;101103.28;5057771;28;46263;-48
2022/04/19 03:47:17;;;;;;;;;3.00;3.00;;;;;12.75;47.86;101111.13;5057593;28;45428;-45
2022/04/19 03:49:43;;;;;;;;;4.33;3.00;;;;;12.76;48.67;101118.13;5056950;28;45353;-44
2022/04/19 03:52:10;;;;;;;;;9.67;6.33;;;;;12.76;48.23;101103.94;5057823;28;45221;-46
2022/04/19 03:54:36;;;;;;;;;3.00;3.00;;;;;12.74;48.01;101104.94;5057825;28;46098;-45
2022/04/19 03:57:07;;;;;;;;;6.67;2.00;;;;;12.73;47.62;101105.09;5057696;28;45348;-46
2022/04/19 03:59:34;;;;;;;;;3.33;2.00;;;;;12.72;47.50;101101.59;5057563;28;45490;-45
2022/04/19 04:01:59;;;;;;;;;5.67;2.67;;;;;12.70;47.76;101097.41;5057748;28;45326;-45
2022/04/19 04:04:30;;;;;;;;;6.00;2.00;;;;;12.64;47.85;101096.19;5056948;28;46126;-46
2022/04/19 04:06:57;;;;;;;;;4.00;2.67;;;;;12.60;47.74;101080.59;5057224;28;45465;-47
2022/04/19 04:09:23;;;;;;;;;3.33;2.33;;;;;12.64;47.64;101085.50;5057209;28;45263;-45
2022/04/19 04:11:48;;;;;;;;;5.00;2.33;;;;;12.60;47.91;101089.47;5057569;28;45281;-45
2022/04/19 04:14:13;;;;;;;;;4.00;2.00;;;;;12.64;47.51;101087.31;5057103;28;46898;-46
2022/04/19 04:16:39;;;;;;;;;5.33;5.33;;;;;12.63;47.54;101099.81;5057205;28;45249;-44
2022/04/19 04:19:04;;;;;;;;;6.33;2.33;;;;;12.63;47.50;101102.50;5057467;28;45347;-45
2022/04/19 04:21:29;;;;;;;;;4.00;3.33;;;;;12.60;47.69;101096.59;5057633;28;45354;-46
2022/04/19 04:23:55;;;;;;;;;4.00;2.33;;;;;12.62;47.89;101102.66;5056969;28;45149;-44
2022/04/19 04:26:20;;;;;;;;;3.33;3.00;;;;;12.60;48.01;101097.47;5057121;28;45345;-45
2022/04/19 04:28:45;;;;;;;;;2.33;2.33;;;;;12.61;48.56;101107.16;5055833;28;45331;-44
2022/04/19 04:31:11;;;;;;;;;4.67;4.00;;;;;12.61;48.89;101101.81;5057302;28;45455;-45
2022/04/19 04:33:36;;;;;;;;;6.67;6.67;;;;;12.60;48.51;101096.59;5057124;28;45226;-47
2022/04/19 04:36:02;;;;;;;;;3.00;2.00;;;;;12.52;48.71;101086.72;5056865;28;45404;-44
2022/04/19 04:38:27;;;;;;;;;6.33;4.67;;;;;12.59;49.08;101101.09;5057183;28;45235;-45
2022/04/19 04:40:53;;;;;;;;;4.67;2.33;;;;;12.61;49.34;101103.66;5057303;28;45285;-44
2022/04/19 04:43:18;;;;;;;;;10.00;3.00;;;;;12.60;48.73;101101.94;5056963;28;45324;-45
2022/04/19 04:45:43;;;;;;;;;7.33;3.00;;;;;12.60;48.67;101110.81;5057183;28;45528;-44
2022/04/19 04:50:52;;;;;;;;;2.33;2.00;;;;;12.61;49.02;101117.81;5057007;28;45428;-43
2022/04/19 04:53:18;;;;;;;;;6.00;4.00;;;;;12.63;49.34;101110.50;5056706;28;46491;-44
2022/04/19 04:55:43;;;;;;;;;5.00;3.00;;;;;12.63;48.97;101115.84;5056650;28;45517;-45
2022/04/19 04:58:12;;;;;;;;;4.33;2.00;;;;;12.65;49.19;101116.53;5056650;28;45536;-43
2022/04/19 05:00:38;;;;;;;;;3.67;2.33;;;;;12.67;49.29;101119.03;5059744;28;45332;-44
2022/04/19 05:03:03;;;;;;;;;3.00;3.00;;;;;12.67;49.30;101111.88;5059849;28;46271;-46
2022/04/19 05:05:29;;;;;;;;;6.33;4.00;;;;;12.65;49.46;101113.03;5060102;28;45417;-45
2022/04/19 05:07:55;;;;;;;;;4.67;2.00;;;;;12.70;49.30;101119.59;5060143;28;45381;-44
2022/04/19 05:10:20;;;;;;;;;4.00;3.33;;;;;12.73;49.29;101121.97;5059006;28;45277;-45
2022/04/19 05:12:46;;;;;;;;;6.33;3.00;;;;;12.77;49.55;101124.31;5060215;28;45314;-43
2022/04/19 05:15:11;;;;;;;;;3.00;2.33;;;;;12.80;49.39;101124.84;5059973;28;45557;-44
2022/04/19 05:17:37;;;;;;;;;4.00;4.00;;;;;12.82;50.31;101128.22;5060275;28;45241;-45
2022/04/19 05:20:03;;;;;;;;;6.00;2.50;;;;;12.80;49.99;101122.16;5060172;28;45379;-44
2022/04/19 05:22:28;;;;;;;;;9.00;3.67;;;;;12.87;50.02;101122.41;5059831;28;46049;-44
2022/04/19 05:24:53;;;;;;;;;4.00;4.00;;;;;12.88;50.28;101118.75;5060129;28;45211;-45
2022/04/19 05:27:20;;;;;;;;;3.33;3.33;;;;;12.90;50.63;101122.13;5060043;28;45501;-45
2022/04/19 05:29:45;;;;;;;;;7.00;3.00;;;;;12.91;50.13;101119.28;5060171;28;45314;-45
2022/04/19 05:32:10;;;;;;;;;6.00;3.67;;;;;12.93;50.25;101127.13;5059546;28;45337;-44
2022/04/19 05:34:36;;;;;;;;;5.33;3.33;;;;;12.90;50.21;101127.47;5059901;28;45342;-44
2022/04/19 05:37:01;;;;;;;;;3.33;3.00;;;;;12.92;50.73;101122.78;5059969;28;45320;-44
2022/04/19 05:39:27;;;;;;;;;7.00;4.00;;;;;12.92;50.68;101128.13;5059963;28;45399;-47
2022/04/19 05:41:52;;;;;;;;;3.00;3.00;;;;;12.93;50.56;101125.31;5059717;28;46427;-44
2022/04/19 05:44:18;;;;;;;;;3.33;3.33;;;;;12.92;51.45;101120.97;5059671;28;45316;-46
2022/04/19 05:46:43;;;;;;;;;3.00;3.00;;;;;12.90;51.34;101125.63;5059942;28;45447;-45
2022/04/19 05:49:09;;;;;;;;;3.00;3.00;;;;;12.91;50.41;101126.47;5059990;28;45354;-45
2022/04/19 05:51:34;;;;;;;;;2.00;2.00;;;;;12.92;51.71;101125.47;5059583;28;45499;-47
2022/04/19 05:54:00;;;;;;;;;7.00;3.00;;;;;12.92;51.26;101128.13;5060127;28;45258;-45
2022/04/19 05:56:26;;;;;;;;;4.00;2.33;;;;;12.92;51.73;101125.47;5060339;28;45410;-44
2022/04/19 05:58:51;;;;;;;;;3.67;3.67;;;;;12.93;52.13;101124.47;5059736;28;45428;-44
2022/04/19 06:01:18;;;;;;;;;3.00;3.00;;;;;12.90;51.76;101117.63;5059863;28;46429;-46
2022/04/19 06:06:27;;;;;;;;;8.00;7.00;;;;;13.03;52.23;101122.56;5059391;28;45289;-44
2022/04/19 06:08:53;;;;;;;;;8.00;3.33;;;;;13.05;52.47;101120.56;5059634;28;45366;-47
2022/04/19 06:11:19;;;;;;;;;4.67;3.00;;;;;13.11;51.93;101124.47;5058952;28;46104;-46
2022/04/19 06:13:45;;;;;;;;;5.00;5.00;;;;;13.17;52.21;101126.53;5059402;28;45327;-46
2022/04/19 06:16:10;;;;;;;;;6.67;4.00;;;;;13.25;52.22;101129.28;5059453;28;45437;-44
2022/04/19 06:18:36;;;;;;;;;12.67;6.00;;;;;13.29;51.34;101119.97;5059451;28;45476;-45
2022/04/19 06:21:04;;;;;;;;;8.00;3.67;;;;;13.40;51.23;101125.09;5059116;28;45930;-44
2022/04/19 06:23:30;;;;;;;;;4.00;4.00;;;;;13.44;51.84;101126.44;5059152;28;45505;-45
2022/04/19 06:25:55;;;;;;;;;7.00;2.33;;;;;13.47;51.26;101131.47;5059187;28;45812;-46
2022/04/19 06:28:20;;;;;;;;;4.00;3.00;;;;;13.51;51.53;101134.66;5059379;28;45228;-42
2022/04/19 06:30:46;;;;;;;;;3.00;3.00;;;;;13.56;51.67;101134.19;5058832;28;46007;-46
2022/04/19 06:33:12;;;;;;;;;7.00;7.00;;;;;13.58;51.18;101129.53;5059074;28;45216;-44
2022/04/19 06:35:37;;;;;;;;;7.00;4.00;;;;;13.58;51.53;101127.72;5059049;28;45238;-46
2022/04/19 06:38:02;;;;;;;;;10.00;5.00;;;;;13.62;51.57;101133.59;5059239;28;45175;-45
2022/04/19 06:40:28;;;;;;;;;9.00;5.00;;;;;13.57;51.57;101115.34;5059004;28;45235;-47
2022/04/19 06:42:57;;;;;;;;;9.33;6.00;;;;;13.67;51.72;101129.44;5058872;28;45385;-45
2022/04/19 06:45:23;;;;;;;;;7.67;4.00;;;;;13.72;51.33;101129.78;5059022;28;45331;-47
2022/04/19 06:47:55;;;;;;;;;8.00;5.00;;;;;13.77;51.71;101128.47;5058964;28;45282;-49
2022/04/19 06:50:21;;;;;;;;;4.00;4.00;;;;;13.80;50.77;101123.66;5058682;28;46353;-45
2022/04/19 06:52:46;;;;;;;;;7.33;6.33;;;;;13.80;51.47;101126.34;5058441;28;45316;-45
2022/04/19 06:55:12;;;;;;;;;8.33;4.00;;;;;13.91;51.18;101131.44;5058825;28;45348;-46
2022/04/19 06:57:39;;;;;;;;;10.33;7.00;;;;;14.02;50.97;101124.94;5058720;28;45273;-44
2022/04/19 07:00:05;;;;;;;;;10.67;6.33;;;;;14.11;50.67;101117.78;5058384;28;47007;-47
2022/04/19 07:02:31;;;;;;;;;8.00;4.67;;;;;14.28;50.40;101119.53;5058553;28;45408;-44
2022/04/19 07:04:56;;;;;;;;;13.00;4.67;;;;;14.50;49.95;101120.84;5058584;28;45451;-47
2022/04/19 07:07:21;;;;;;;;;13.00;7.00;;;;;15.27;48.76;101117.91;5058672;28;45198;-46
2022/04/19 07:09:49;;;;;;;;;8.67;6.33;;;;;16.11;47.29;101119.28;5056873;28;45404;-44
2022/04/19 07:12:14;;;;;;;;;8.00;6.67;;;;;16.95;45.82;101107.75;5058500;28;45345;-45
2022/04/19 07:14:39;;;;;;;;;14.00;9.00;;;;;17.89;44.01;101126.22;5058190;28;45371;-44
2022/04/19 07:17:05;;;;;;;;;9.33;6.67;;;;;18.79;41.73;101122.41;5058680;28;45396;-47
2022/04/19 07:26:37;;;;;;;;;11.67;8.67;;;;;19.23;40.69;101113.28;5058146;28;46244;-45
2022/04/19 07:27:43;;;;;;;;;12.00;8.00;;;;;21.47;36.79;101112.59;5058358;28;45301;-44
2022/04/19 07:30:10;;;;;;;;;9.67;6.33;;;;;21.85;36.09;101104.59;5058185;28;45867;-44
2022/04/19 07:32:36;;;;;;;;;12.00;7.67;;;;;22.25;35.33;101096.38;5058157;28;45439;-43
2022/04/19 07:35:02;;;;;;;;;10.00;8.67;;;;;22.60;34.52;101087.88;5058078;28;45413;-44
2022/04/19 07:37:29;;;;;;;;;11.67;7.00;;;;;22.89;33.31;101087.25;5058033;28;45484;-43
2022/04/19 07:39:54;;;;;;;;;9.00;9.00;;;;;23.36;33.29;101087.75;5057762;28;45227;-44
2022/04/19 07:42:20;;;;;;;;;6.50;4.75;;;;;23.99;31.73;101096.75;5057931;28;45491;-44
2022/04/19 07:44:45;;;;;;;;;11.75;8.50;;;;;24.34;31.03;101096.94;5057934;28;45348;-44
2022/04/19 07:47:14;;;;;;;;;7.75;6.00;;;;;24.38;31.17;101101.72;5058001;28;45242;-45
2022/04/19 07:49:39;;;;;;;;;8.50;7.00;;;;;24.38;31.15;101099.00;5057540;28;46322;-43
2022/04/19 07:52:04;;;;;;;;;7.25;6.25;;;;;24.35;30.96;101096.69;5057445;28;45387;-44
2022/04/19 07:54:30;;;;;;;;;5.50;5.50;;;;;24.27;31.08;101097.03;5057900;28;45424;-44
2022/04/19 07:56:55;;;;;;;;;9.00;6.50;;;;;24.33;30.66;101092.56;5057890;28;45427;-44
2022/04/19 07:59:20;;;;;;;;;6.00;4.50;;;;;24.31;30.32;101095.50;5057092;28;47105;-44
2022/04/19 08:01:46;;;;;;;;;5.75;5.75;;;;;24.33;29.96;101095.28;5057582;28;45322;-43
2022/04/19 08:04:11;;;;;;;;;7.25;5.25;;;;;24.38;30.38;101095.44;5056437;28;46055;-45
2022/04/19 08:06:36;;;;;;;;;7.50;7.00;;;;;24.45;29.45;101090.75;5057659;28;45249;-44
2022/04/19 08:09:02;;;;;;;;;6.25;6.25;;;;;24.67;30.15;101088.34;5057253;28;45313;-44
2022/04/19 08:11:28;;;;;;;;;6.25;6.25;;;;;24.87;30.03;101083.44;5057536;28;45346;-45
2022/04/19 08:13:53;;;;;;;;;4.75;4.50;;;;;24.83;29.06;101092.31;5057707;28;45482;-46
2022/04/19 08:16:18;;;;;;;;;6.75;4.75;;;;;24.91;29.37;101077.53;5057582;28;45291;-44
2022/04/19 08:18:44;;;;;;;;;5.75;5.00;;;;;25.10;28.95;101079.94;5057339;28;46026;-46
2022/04/19 08:21:09;;;;;;;;;8.25;5.00;;;;;25.35;28.62;101087.09;5057361;28;45365;-48
2022/04/19 08:23:34;;;;;;;;;6.75;6.75;;;;;25.68;28.64;101082.94;5057131;28;45631;-44
2022/04/19 08:26:00;;;;;;;;;10.25;6.00;;;;;26.02;27.78;101082.06;5057609;28;45386;-44
2022/04/19 08:28:25;;;;;;;;;7.25;6.75;;;;;26.78;26.24;101080.00;5057117;28;45433;-43
2022/04/19 08:30:50;;;;;;;;;6.75;6.00;;;;;27.87;25.36;101078.72;5057168;28;45393;-44
2022/04/19 08:33:16;;;;;;;;;7.75;6.00;;;;;28.84;24.70;101077.09;5057199;28;45311;-44
2022/04/19 08:35:41;;;;;;;;;7.75;5.25;;;;;29.74;23.27;101077.22;5057048;28;45357;-44
2022/04/19 08:38:07;;;;;;;;;7.00;6.50;;;;;30.43;21.84;101078.91;5057003;28;46030;-44
2022/04/19 08:40:33;;;;;;;;;7.40;7.40;;;;;30.87;22.79;101072.94;5056979;28;45410;-46
2022/04/19 08:43:00;;;;;;;;;9.75;6.25;;;;;31.51;20.44;101075.91;5057128;28;45198;-47
2022/04/19 08:45:26;;;;;;;;;5.40;5.00;;;;;32.49;20.58;101070.88;5056969;28;45276;-44
2022/04/19 08:47:52;;;;;;;;;5.20;4.20;;;;;33.27;19.58;101069.97;5055458;28;47196;-45
2022/04/19 08:50:19;;;;;;;;;5.75;5.00;;;;;34.05;19.36;101070.78;5056897;28;45645;-44
2022/04/19 08:52:46;;;;;;;;;11.60;8.80;;;;;34.77;17.41;101059.56;5056864;28;45427;-45
2022/04/19 08:58:12;;;;;;;;;5.20;3.60;;;;;36.33;16.25;101056.00;5034152;28;46078;-47
2022/04/19 09:00:38;;;;;;;;;9.25;6.75;;;;;36.63;16.41;101049.75;5034350;28;45358;-46
2022/04/19 09:03:03;;;;;;;;;7.25;6.00;;;;;37.03;15.68;101049.03;5034463;28;45449;-45
2022/04/19 09:05:28;;;;;;;;;7.00;6.75;;;;;37.22;15.29;101057.97;5034785;28;45343;-46
2022/04/19 09:07:58;;;;;;;;;6.50;4.50;;;;;37.69;15.28;101061.13;5033941;28;46241;-45
2022/04/19 09:10:31;;;;;;;;;8.20;6.00;;;;;37.96;15.84;101060.06;5034253;28;45267;-45
2022/04/19 09:13:00;;;;;;;;;7.80;4.60;;;;;38.44;13.92;101056.38;5034375;28;45401;-46
2022/04/19 09:15:35;;;;;;;;;6.20;6.20;;;;;38.42;14.96;101048.34;5034611;28;45367;-47
2022/04/19 09:18:01;;;;;;;;;6.80;5.20;;;;;38.93;13.84;101054.19;5034012;28;46453;-45
2022/04/19 09:20:27;;;;;;;;;6.75;5.75;;;;;39.55;13.39;101050.06;5033658;28;45623;-45
2022/04/19 09:23:08;;;;;;;;;5.00;5.00;;;;;39.72;13.48;101046.41;5034272;28;45498;-45
2022/04/19 09:25:35;;;;;;;;;6.40;5.80;;;;;39.87;13.20;101049.44;5034476;28;45453;-48
2022/04/19 09:28:05;;;;;;;;;4.20;4.20;;;;;40.39;12.72;101046.28;5033825;28;46042;-45
2022/04/19 09:30:34;;;;;;;;;5.80;4.40;;;;;41.13;12.70;101043.78;5033944;28;45294;-44
2022/04/19 09:33:00;;;;;;;;;7.40;7.40;;;;;41.40;12.54;101039.50;5052691;28;45527;-45
2022/04/19 09:35:29;;;;;;;;;7.00;7.00;;;;;41.61;12.48;101048.59;5056510;28;45273;-44
2022/04/19 09:37:55;;;;;;;;;5.40;4.80;;;;;42.02;11.85;101037.50;5056124;28;45297;-45
2022/04/19 09:40:38;;;;;;;;;9.40;7.20;;;;;42.78;13.47;101038.53;5056368;28;45302;-45
2022/04/19 09:43:10;;;;;;;;;6.60;6.40;;;;;43.28;11.29;101029.47;5055153;28;45404;-44
2022/04/19 09:45:59;;;;;;;;;9.00;5.20;;;;;43.49;11.49;101028.34;5056532;28;45325;-45
2022/04/19 09:48:34;;;;;;;;;8.60;8.60;;;;;43.75;11.45;101020.19;5058579;28;46423;-44
2022/04/19 09:51:04;;;;;;;;;6.20;6.00;;;;;42.99;12.06;101027.91;5059549;28;45226;-44
2022/04/19 09:53:43;;;;;;;;;8.80;7.60;;;;;42.27;12.31;101030.69;5059544;28;45533;-45
2022/04/19 09:56:14;;;;;;;;;9.80;8.00;;;;;42.33;11.97;101025.66;5059640;28;45372;-46
2022/04/19 09:58:41;;;;;;;;;8.40;7.40;;;;;40.44;13.15;101019.34;5059249;28;45809;-47
2022/04/19 10:01:07;;;;;;;;;8.80;7.00;;;;;39.05;13.57;101026.50;5059347;28;45323;-44
2022/04/19 10:09:05;;;;;;;;;7.40;7.40;;;;;41.58;12.59;101012.16;5059090;28;45773;-45
2022/04/19 10:11:31;;;;;;;;;8.20;6.80;;;;;41.63;12.40;101001.56;5059493;28;45196;-44
2022/04/19 10:13:57;;;;;;;;;9.00;9.00;;;;;41.75;12.10;101000.72;5059541;28;45550;-46
2022/04/19 10:16:23;;;;;;;;;10.80;8.00;;;;;42.31;12.55;100992.47;5059363;28;45310;-44
2022/04/19 10:18:49;;;;;;;;;17.25;13.50;;;;;42.52;12.12;100985.81;5058926;28;46050;-47
2022/04/19 10:21:17;;;;;;;;;17.00;12.80;;;;;42.83;11.88;100994.28;5057660;28;45934;-46
2022/04/19 10:23:44;;;;;;;;;21.20;13.80;;;;;43.40;11.77;100985.72;5059137;28;45339;-45
2022/04/19 10:26:14;;;;;;;;;26.60;19.40;;;;;44.15;12.03;100987.41;5059377;28;45273;-46
2022/04/19 10:28:40;;;;;;;;;16.00;12.60;;;;;44.39;11.08;100984.31;5059142;28;46262;-48
2022/04/19 10:31:13;;;;;;;;;11.80;11.40;;;;;44.17;11.39;100985.06;5057888;28;45424;-44
2022/04/19 10:33:41;;;;;;;;;11.60;8.20;;;;;44.20;10.64;100982.31;5059087;28;45221;-47
2022/04/19 10:36:10;;;;;;;;;9.80;8.20;;;;;43.98;11.59;100980.25;5059162;28;45412;-45
2022/04/19 10:38:36;;;;;;;;;7.60;7.00;;;;;43.46;11.05;100984.28;5058441;28;46200;-47
2022/04/19 10:41:02;;;;;;;;;8.50;8.00;;;;;42.44;11.91;100979.25;5059170;28;45393;-45
2022/04/19 10:43:28;;;;;;;;;7.80;6.60;;;;;41.57;13.14;100980.63;5059036;28;45266;-47
2022/04/19 10:45:54;;;;;;;;;9.00;7.25;;;;;41.17;12.30;100977.69;5058972;28;45545;-45
2022/04/19 10:48:20;;;;;;;;;16.00;7.80;;;;;41.11;12.79;100967.94;5058533;28;46115;-46
2022/04/19 10:50:50;;;;;;;;;9.50;6.25;;;;;41.51;12.85;100981.19;5056867;28;45356;-45
2022/04/19 10:53:16;;;;;;;;;12.20;7.80;;;;;41.76;12.46;100970.81;5058553;28;45246;-44
2022/04/19 10:56:06;;;;;;;;;7.00;6.00;;;;;42.13;12.91;100979.91;5058881;28;45337;-46
2022/04/19 10:58:40;;;;;;;;;8.80;6.60;;;;;42.44;12.29;100970.84;5058043;28;46272;-50
2022/04/19 11:01:09;;;;;;;;;8.60;6.40;;;;;42.58;11.70;100967.63;5058182;28;45391;-45
2022/04/19 11:03:40;;;;;;;;;10.60;9.00;;;;;42.63;12.21;100967.34;5058395;28;45356;-45
2022/04/19 11:06:28;;;;;;;;;10.60;7.60;;;;;42.62;12.82;100962.94;5058461;28;45395;-46
2022/04/19 11:09:09;;;;;;;;;9.20;7.80;;;;;42.59;12.00;100963.66;5057801;28;47152;-46
2022/04/19 11:11:46;;;;;;;;;9.00;8.20;;;;;42.53;12.22;100962.28;5058220;28;45232;-46
2022/04/19 11:14:22;;;;;;;;;9.20;7.20;;;;;42.70;12.41;100956.38;5058409;28;45269;-46
2022/04/19 11:16:53;;;;;;;;;8.20;6.80;;;;;42.79;11.95;100950.63;5058443;28;45443;-45
2022/04/19 11:19:25;;;;;;;;;13.00;10.00;;;;;42.93;11.76;100950.97;5057853;28;46478;-44
2022/04/19 11:21:59;;;;;;;;;11.00;9.00;;;;;43.13;11.92;100946.28;5058180;28;45439;-45
2022/04/19 11:25:02;;;;;;;;;8.80;7.80;;;;;43.27;12.05;100945.81;5058052;28;45428;-45
2022/04/19 11:27:52;;;;;;;;;14.00;9.40;;;;;42.68;12.22;100944.72;5058336;28;45869;-49
2022/04/19 11:30:18;;;;;;;;;7.80;7.80;;;;;42.33;11.85;100948.19;5057709;28;46127;-45
2022/04/19 11:32:53;;;;;;;;;7.25;7.25;;;;;42.26;12.54;100935.97;5057975;28;45238;-49
2022/04/19 11:35:19;;;;;;;;;11.80;11.20;;;;;42.13;11.94;100941.59;5057867;28;45364;-48
2022/04/19 11:37:45;;;;;;;;;12.60;10.20;;;;;42.09;12.18;100946.28;5058003;28;45368;-45
2022/04/19 11:48:48;;;;;;;;;10.80;9.60;;;;;40.14;13.32;100941.41;5058215;28;46129;-44
2022/04/19 11:51:17;;;;;;;;;11.40;11.40;;;;;39.19;14.09;100928.94;5057447;28;46116;-49
2022/04/19 11:53:43;;;;;;;;;9.60;9.60;;;;;38.13;14.59;100946.16;5057627;28;45369;-44
2022/04/19 11:56:09;;;;;;;;;13.80;13.40;;;;;37.18;15.02;100935.72;5057621;28;45381;-45
2022/04/19 11:58:36;;;;;;;;;12.00;10.20;;;;;36.42;15.37;100943.28;5057442;28;45321;-44
2022/04/19 12:01:07;;;;;;;;;13.00;10.20;;;;;35.73;16.28;100949.88;5057622;28;45467;-45